Time;durP1;ratioP1;P1;durP2;ratioP2;P2;SDS_P1;SDS_P2;PMS_P1;PMS_P2;Temp;Humidity;BMP_temperature;BMP_pressure;BME280_temperature;BME280_humidity;BME280_pressure;Samples;Min_cycle;Max_cycle;Signal;HPM_P1;HPM_P2
2023/03/04 00:01:58;;;;;;;13.03;3.37;;;;;;;;;;5070982;28;20430;-53
2023/03/04 00:04:24;;;;;;;11.70;3.90;;;;;;;;;;5070840;28;20499;-51
2023/03/04 00:06:50;;;;;;;15.33;3.53;;;;;;;;;;5070858;28;20658;-52
2023/03/04 00:09:16;;;;;;;13.10;3.47;;;;;;;;;;5071137;28;20199;-51
2023/03/04 00:11:44;;;;;;;14.37;3.87;;;;;;;;;;5070971;28;20200;-51
2023/03/04 00:14:10;;;;;;;11.73;3.50;;;;;;;;;;5071249;28;20227;-50
2023/03/04 00:16:36;;;;;;;9.70;3.43;;;;;;;;;;5071122;28;20444;-50
2023/03/04 00:19:02;;;;;;;10.33;3.63;;;;;;;;;;5070917;28;20208;-51
2023/03/04 00:21:28;;;;;;;6.73;2.60;;;;;;;;;;5071026;28;20433;-51
2023/03/04 00:23:54;;;;;;;8.97;2.80;;;;;;;;;;5070764;28;20473;-51
2023/03/04 00:26:20;;;;;;;10.83;3.50;;;;;;;;;;5071266;28;20422;-52
2023/03/04 00:28:47;;;;;;;9.70;2.93;;;;;;;;;;5070858;28;20450;-50
2023/03/04 00:31:13;;;;;;;12.80;3.07;;;;;;;;;;5070742;28;20294;-51
2023/03/04 00:33:39;;;;;;;10.70;3.20;;;;;;;;;;5071092;28;20517;-51
2023/03/04 00:36:06;;;;;;;11.07;3.07;;;;;;;;;;5073413;28;20199;-51
2023/03/04 00:38:32;;;;;;;11.70;3.20;;;;;;;;;;5074650;28;20202;-52
2023/03/04 00:40:58;;;;;;;12.23;3.63;;;;;;;;;;5074613;28;20235;-51
2023/03/04 00:43:24;;;;;;;7.30;3.03;;;;;;;;;;5074477;28;20697;-51
2023/03/04 00:45:51;;;;;;;13.13;3.00;;;;;;;;;;5074321;28;20292;-50
2023/03/04 00:48:17;;;;;;;12.73;3.13;;;;;;;;;;5074569;28;20430;-53
2023/03/04 00:50:43;;;;;;;18.73;3.67;;;;;;;;;;5074221;28;20707;-51
2023/03/04 00:53:09;;;;;;;10.77;3.20;;;;;;;;;;5074255;28;20196;-51
2023/03/04 00:55:35;;;;;;;10.47;2.60;;;;;;;;;;5073914;28;20879;-51
2023/03/04 00:58:01;;;;;;;11.17;3.30;;;;;;;;;;5074238;28;20271;-52
2023/03/04 01:00:27;;;;;;;12.73;3.03;;;;;;;;;;5074196;28;20239;-52
2023/03/04 01:02:55;;;;;;;8.43;2.73;;;;;;;;;;5074419;28;20203;-52
2023/03/04 01:05:21;;;;;;;16.33;3.37;;;;;;;;;;5074303;28;20784;-52
2023/03/04 01:07:47;;;;;;;12.07;3.43;;;;;;;;;;5073686;28;20278;-52
2023/03/04 01:10:14;;;;;;;12.13;3.20;;;;;;;;;;5074145;28;20451;-53
2023/03/04 01:12:40;;;;;;;11.10;3.63;;;;;;;;;;5073986;28;20204;-52
2023/03/04 01:15:07;;;;;;;11.17;3.20;;;;;;;;;;5074014;28;20426;-51
2023/03/04 01:17:33;;;;;;;10.13;3.03;;;;;;;;;;5071933;28;20225;-52
2023/03/04 01:20:00;;;;;;;11.50;2.70;;;;;;;;;;5072347;28;20195;-52
2023/03/04 01:22:26;;;;;;;6.67;2.17;;;;;;;;;;5073594;28;20212;-54
2023/03/04 01:24:52;;;;;;;13.93;3.40;;;;;;;;;;5073837;28;20483;-53
2023/03/04 01:27:18;;;;;;;6.20;2.50;;;;;;;;;;5073897;28;20658;-49
2023/03/04 01:29:44;;;;;;;7.73;2.50;;;;;;;;;;5073775;28;20204;-50
2023/03/04 01:32:10;;;;;;;9.10;3.03;;;;;;;;;;5073850;28;20345;-53
2023/03/04 01:34:36;;;;;;;14.70;3.37;;;;;;;;;;5073836;28;20195;-52
2023/03/04 01:37:03;;;;;;;12.00;3.00;;;;;;;;;;5073818;28;20444;-51
2023/03/04 01:39:29;;;;;;;6.47;2.57;;;;;;;;;;5073329;28;21025;-51
2023/03/04 01:41:55;;;;;;;9.60;2.83;;;;;;;;;;5073560;28;20666;-51
2023/03/04 01:44:22;;;;;;;11.80;2.83;;;;;;;;;;5073655;28;20474;-52
2023/03/04 01:46:49;;;;;;;10.23;2.50;;;;;;;;;;5073418;28;20488;-51
2023/03/04 01:49:15;;;;;;;14.20;2.90;;;;;;;;;;5073488;28;21001;-52
2023/03/04 01:51:42;;;;;;;8.70;2.20;;;;;;;;;;5073365;28;20441;-52
2023/03/04 01:54:10;;;;;;;8.87;2.63;;;;;;;;;;5073460;28;20434;-52
2023/03/04 01:56:37;;;;;;;6.17;2.27;;;;;;;;;;5073390;28;20932;-52
2023/03/04 01:59:07;;;;;;;6.50;2.00;;;;;;;;;;5073253;28;20202;-52
2023/03/04 02:01:33;;;;;;;10.90;2.97;;;;;;;;;;5073198;28;20195;-56
2023/03/04 02:03:59;;;;;;;11.60;2.77;;;;;;;;;;5072987;28;20954;-53
2023/03/04 02:06:25;;;;;;;8.00;2.60;;;;;;;;;;5073153;28;20231;-52
2023/03/04 02:08:51;;;;;;;8.40;2.70;;;;;;;;;;5073137;28;20438;-52
2023/03/04 02:11:18;;;;;;;7.13;2.53;;;;;;;;;;5073070;28;20950;-52
2023/03/04 02:13:44;;;;;;;6.70;2.23;;;;;;;;;;5072686;28;20310;-52
2023/03/04 02:16:10;;;;;;;9.20;2.30;;;;;;;;;;5072732;28;20528;-52
2023/03/04 02:18:36;;;;;;;8.07;2.17;;;;;;;;;;5072373;28;20195;-52
2023/03/04 02:21:07;;;;;;;5.70;1.80;;;;;;;;;;5072297;28;20474;-52
2023/03/04 02:23:37;;;;;;;8.27;1.93;;;;;;;;;;5072251;28;20282;-52
2023/03/04 02:26:10;;;;;;;9.10;2.53;;;;;;;;;;5072439;28;20512;-52
2023/03/04 02:28:36;;;;;;;10.37;3.00;;;;;;;;;;5072778;28;20989;-53
2023/03/04 02:31:02;;;;;;;6.37;2.13;;;;;;;;;;5072777;28;20208;-52
2023/03/04 02:33:28;;;;;;;7.40;2.43;;;;;;;;;;5072593;28;20314;-52
2023/03/04 02:35:54;;;;;;;7.97;2.17;;;;;;;;;;5072053;28;20866;-52
2023/03/04 02:38:20;;;;;;;8.60;2.33;;;;;;;;;;5072170;28;20198;-52
2023/03/04 02:40:48;;;;;;;6.97;2.37;;;;;;;;;;5072265;28;20478;-53
2023/03/04 02:43:15;;;;;;;6.40;2.50;;;;;;;;;;5072405;28;20249;-53
2023/03/04 02:45:42;;;;;;;9.57;2.57;;;;;;;;;;5072172;28;20474;-52
2023/03/04 02:48:09;;;;;;;8.27;2.00;;;;;;;;;;5072303;28;20434;-51
2023/03/04 02:50:37;;;;;;;6.40;2.70;;;;;;;;;;5072266;28;20443;-52
2023/03/04 02:53:03;;;;;;;10.00;2.80;;;;;;;;;;5072181;28;20509;-52
2023/03/04 02:55:29;;;;;;;8.17;2.27;;;;;;;;;;5072052;28;20679;-52
2023/03/04 02:57:55;;;;;;;9.30;2.17;;;;;;;;;;5071593;28;20446;-52
2023/03/04 03:00:22;;;;;;;6.23;2.03;;;;;;;;;;5072232;28;20438;-52
2023/03/04 03:02:48;;;;;;;9.80;2.57;;;;;;;;;;5072041;28;20287;-52
2023/03/04 03:05:18;;;;;;;7.20;2.03;;;;;;;;;;5071974;28;20551;-52
2023/03/04 03:07:44;;;;;;;7.17;2.47;;;;;;;;;;5071796;28;20434;-52
2023/03/04 03:10:10;;;;;;;7.97;2.37;;;;;;;;;;5071855;28;20919;-52
2023/03/04 03:12:36;;;;;;;6.90;2.13;;;;;;;;;;5071905;28;20452;-52
2023/03/04 03:15:02;;;;;;;6.23;2.10;;;;;;;;;;5072083;28;20729;-52
2023/03/04 03:17:30;;;;;;;5.33;1.90;;;;;;;;;;5071804;28;20441;-52
2023/03/04 03:19:56;;;;;;;5.90;2.10;;;;;;;;;;5071692;28;20626;-53
2023/03/04 03:22:22;;;;;;;6.27;2.10;;;;;;;;;;5071894;28;20513;-52
2023/03/04 03:24:48;;;;;;;8.60;2.30;;;;;;;;;;5071869;28;20812;-52
2023/03/04 03:27:14;;;;;;;9.77;1.97;;;;;;;;;;5071696;28;20532;-53
2023/03/04 03:29:40;;;;;;;10.00;2.17;;;;;;;;;;5071562;28;20206;-51
2023/03/04 03:32:06;;;;;;;7.03;2.20;;;;;;;;;;5071900;28;20665;-52
2023/03/04 03:34:33;;;;;;;8.90;2.33;;;;;;;;;;5071632;28;20192;-52
2023/03/04 03:36:59;;;;;;;4.23;2.17;;;;;;;;;;5071594;28;20216;-52
2023/03/04 03:39:25;;;;;;;7.23;2.03;;;;;;;;;;5071546;28;20481;-52
2023/03/04 03:41:51;;;;;;;8.37;2.13;;;;;;;;;;5071693;28;20195;-53
2023/03/04 03:44:17;;;;;;;12.33;2.67;;;;;;;;;;5071669;28;20564;-53
2023/03/04 03:46:43;;;;;;;11.13;2.23;;;;;;;;;;5071451;28;20674;-54
2023/03/04 03:49:09;;;;;;;10.50;2.60;;;;;;;;;;5071588;28;20195;-51
2023/03/04 03:51:37;;;;;;;8.37;2.10;;;;;;;;;;5071654;28;20195;-52
2023/03/04 03:54:03;;;;;;;7.53;2.40;;;;;;;;;;5071616;28;20373;-52
2023/03/04 03:56:29;;;;;;;5.63;1.97;;;;;;;;;;5071726;28;20491;-52
2023/03/04 03:58:55;;;;;;;11.63;3.00;;;;;;;;;;5071478;28;20441;-52
2023/03/04 04:01:21;;;;;;;4.80;1.80;;;;;;;;;;5071625;28;20610;-53
2023/03/04 04:03:47;;;;;;;10.77;2.57;;;;;;;;;;5071273;28;20463;-52
2023/03/04 04:06:13;;;;;;;7.10;2.43;;;;;;;;;;5071364;28;20223;-52
2023/03/04 04:08:41;;;;;;;7.10;2.20;;;;;;;;;;5071236;28;20268;-52
2023/03/04 04:11:08;;;;;;;6.10;2.23;;;;;;;;;;5074170;28;20191;-52
2023/03/04 04:13:37;;;;;;;8.07;2.10;;;;;;;;;;5075375;28;20462;-52
2023/03/04 04:16:04;;;;;;;9.97;2.17;;;;;;;;;;5075501;28;20491;-52
2023/03/04 04:18:29;;;;;;;8.80;2.50;;;;;;;;;;5075547;28;20525;-52
2023/03/04 04:20:56;;;;;;;7.47;2.00;;;;;;;;;;5075458;28;20525;-52
2023/03/04 04:23:22;;;;;;;7.23;2.37;;;;;;;;;;5075405;28;20191;-52
2023/03/04 04:25:49;;;;;;;6.23;2.07;;;;;;;;;;5075098;28;20492;-52
2023/03/04 04:28:15;;;;;;;9.30;2.10;;;;;;;;;;5075180;28;20442;-52
2023/03/04 04:30:41;;;;;;;4.63;2.07;;;;;;;;;;5074990;28;20955;-52
2023/03/04 04:33:08;;;;;;;6.23;1.90;;;;;;;;;;5075278;28;20253;-52
2023/03/04 04:35:35;;;;;;;6.73;2.47;;;;;;;;;;5075114;28;20426;-52
2023/03/04 04:38:01;;;;;;;6.00;2.00;;;;;;;;;;5075095;28;20199;-52
2023/03/04 04:40:27;;;;;;;10.23;2.23;;;;;;;;;;5074671;28;20819;-52
2023/03/04 04:42:54;;;;;;;10.37;2.63;;;;;;;;;;5074880;28;20199;-52
2023/03/04 04:45:20;;;;;;;5.80;2.20;;;;;;;;;;5075060;28;20480;-52
2023/03/04 04:47:46;;;;;;;8.77;2.43;;;;;;;;;;5074676;28;20503;-52
2023/03/04 04:50:12;;;;;;;8.17;2.60;;;;;;;;;;5074615;28;20449;-52
2023/03/04 04:52:38;;;;;;;9.30;2.00;;;;;;;;;;5074589;28;20203;-52
2023/03/04 04:55:04;;;;;;;9.87;2.50;;;;;;;;;;5074801;28;20561;-53
2023/03/04 04:57:30;;;;;;;4.90;2.07;;;;;;;;;;5074572;28;20783;-52
2023/03/04 04:59:58;;;;;;;9.93;2.20;;;;;;;;;;5074441;28;20920;-51
2023/03/04 05:02:24;;;;;;;5.57;2.03;;;;;;;;;;5074576;28;20438;-53
2023/03/04 05:04:50;;;;;;;7.23;2.20;;;;;;;;;;5074445;28;20804;-53
2023/03/04 05:07:16;;;;;;;6.17;2.33;;;;;;;;;;5074356;28;20191;-53
2023/03/04 05:09:42;;;;;;;6.17;2.33;;;;;;;;;;5073997;28;20499;-53
2023/03/04 05:12:08;;;;;;;3.93;1.80;;;;;;;;;;5074370;28;20199;-53
2023/03/04 05:14:34;;;;;;;9.27;2.23;;;;;;;;;;5074257;28;20294;-52
2023/03/04 05:17:01;;;;;;;6.10;2.10;;;;;;;;;;5074351;28;20215;-53
2023/03/04 05:19:27;;;;;;;11.63;2.73;;;;;;;;;;5074228;28;20453;-53
2023/03/04 05:21:53;;;;;;;6.50;2.10;;;;;;;;;;5073820;28;20430;-53
2023/03/04 05:24:19;;;;;;;7.00;2.47;;;;;;;;;;5074430;28;20598;-53
2023/03/04 05:26:45;;;;;;;9.77;2.10;;;;;;;;;;5074197;28;20212;-52
2023/03/04 05:29:11;;;;;;;5.47;2.10;;;;;;;;;;5073952;28;20484;-52
2023/03/04 05:31:37;;;;;;;6.20;2.10;;;;;;;;;;5073971;28;20239;-53
2023/03/04 05:34:04;;;;;;;5.70;2.43;;;;;;;;;;5074020;28;20191;-53
2023/03/04 05:36:30;;;;;;;10.07;2.03;;;;;;;;;;5073874;28;20518;-53
2023/03/04 05:38:57;;;;;;;9.90;2.63;;;;;;;;;;5073736;28;20461;-53
2023/03/04 05:41:23;;;;;;;9.30;2.13;;;;;;;;;;5073714;28;20469;-53
2023/03/04 05:43:49;;;;;;;6.57;2.47;;;;;;;;;;5073679;28;20441;-53
2023/03/04 05:46:15;;;;;;;11.37;2.60;;;;;;;;;;5073643;28;20469;-53
2023/03/04 05:48:42;;;;;;;6.73;2.03;;;;;;;;;;5073595;28;20440;-53
2023/03/04 05:51:10;;;;;;;7.17;2.07;;;;;;;;;;5073884;28;20444;-53
2023/03/04 05:53:36;;;;;;;7.47;2.27;;;;;;;;;;5073643;28;20438;-53
2023/03/04 05:56:06;;;;;;;6.50;2.03;;;;;;;;;;5073619;28;20840;-53
2023/03/04 05:58:32;;;;;;;9.30;2.50;;;;;;;;;;5073376;28;20468;-53
2023/03/04 06:00:59;;;;;;;6.97;2.23;;;;;;;;;;5073420;28;20434;-53
2023/03/04 06:03:25;;;;;;;5.43;2.17;;;;;;;;;;5073332;28;20243;-53
2023/03/04 06:05:52;;;;;;;3.60;1.73;;;;;;;;;;5073316;28;20511;-53
2023/03/04 06:08:20;;;;;;;6.60;2.10;;;;;;;;;;5073267;28;20446;-53
2023/03/04 06:10:46;;;;;;;9.93;2.47;;;;;;;;;;5073107;28;20492;-53
2023/03/04 06:13:12;;;;;;;8.07;1.80;;;;;;;;;;5073196;28;20450;-52
2023/03/04 06:15:38;;;;;;;8.37;1.97;;;;;;;;;;5073128;28;20265;-53
2023/03/04 06:18:04;;;;;;;5.37;1.83;;;;;;;;;;5073092;28;20825;-53
2023/03/04 06:20:31;;;;;;;6.00;1.93;;;;;;;;;;5073056;28;20437;-52
2023/03/04 06:22:57;;;;;;;9.13;3.07;;;;;;;;;;5072787;28;20947;-53
2023/03/04 06:25:24;;;;;;;11.13;2.50;;;;;;;;;;5072936;28;20469;-53
2023/03/04 06:27:50;;;;;;;4.53;1.97;;;;;;;;;;5072913;28;20446;-53
2023/03/04 06:30:17;;;;;;;9.60;2.90;;;;;;;;;;5072829;28;20946;-52
2023/03/04 06:32:43;;;;;;;9.27;2.80;;;;;;;;;;5071894;28;21158;-52
2023/03/04 06:35:09;;;;;;;9.80;2.87;;;;;;;;;;5072883;28;20529;-52
2023/03/04 06:37:35;;;;;;;10.53;3.27;;;;;;;;;;5072693;28;20437;-53
2023/03/04 06:40:02;;;;;;;7.47;3.00;;;;;;;;;;5072594;28;20469;-52
2023/03/04 06:42:29;;;;;;;9.83;3.07;;;;;;;;;;5072666;28;20282;-52
2023/03/04 06:44:55;;;;;;;6.57;3.03;;;;;;;;;;5072304;28;20472;-52
2023/03/04 06:47:22;;;;;;;11.13;2.90;;;;;;;;;;5072659;28;20434;-52
2023/03/04 06:49:48;;;;;;;7.50;2.83;;;;;;;;;;5072454;28;20195;-52
2023/03/04 06:52:14;;;;;;;8.53;2.97;;;;;;;;;;5072286;28;20438;-52
2023/03/04 06:54:40;;;;;;;6.77;2.63;;;;;;;;;;5072347;28;20187;-51
2023/03/04 06:57:06;;;;;;;5.33;2.60;;;;;;;;;;5072357;28;20231;-51
2023/03/04 06:59:34;;;;;;;6.20;2.83;;;;;;;;;;5072319;28;20199;-50
2023/03/04 07:02:00;;;;;;;8.93;3.20;;;;;;;;;;5072140;28;20491;-51
2023/03/04 07:04:26;;;;;;;11.47;2.90;;;;;;;;;;5072176;28;20952;-51
2023/03/04 07:06:52;;;;;;;6.80;2.87;;;;;;;;;;5072078;28;20445;-51
2023/03/04 07:09:18;;;;;;;8.37;3.70;;;;;;;;;;5072211;28;20203;-52
2023/03/04 07:11:44;;;;;;;10.23;3.30;;;;;;;;;;5071921;28;20239;-52
2023/03/04 07:14:10;;;;;;;5.87;3.00;;;;;;;;;;5072051;28;20454;-52
2023/03/04 07:16:37;;;;;;;4.87;3.40;;;;;;;;;;5071947;28;20982;-51
2023/03/04 07:19:03;;;;;;;7.27;3.40;;;;;;;;;;5072220;28;20448;-50
2023/03/04 07:21:29;;;;;;;6.67;2.97;;;;;;;;;;5071823;28;20425;-51
2023/03/04 07:23:55;;;;;;;4.60;2.73;;;;;;;;;;5071951;28;20434;-51
2023/03/04 07:26:22;;;;;;;9.20;3.87;;;;;;;;;;5072015;28;20484;-50
2023/03/04 07:28:48;;;;;;;3.60;3.27;;;;;;;;;;5071718;28;20206;-50
2023/03/04 07:31:19;;;;;;;7.83;4.00;;;;;;;;;;5071843;28;20690;-51
2023/03/04 07:33:46;;;;;;;7.80;3.53;;;;;;;;;;5071671;28;20433;-51
2023/03/04 07:36:13;;;;;;;7.37;3.90;;;;;;;;;;5071706;28;20809;-50
2023/03/04 07:38:42;;;;;;;7.43;3.80;;;;;;;;;;5071595;28;20517;-49
2023/03/04 07:41:08;;;;;;;7.83;4.00;;;;;;;;;;5071559;28;20293;-50
2023/03/04 07:43:34;;;;;;;10.03;4.47;;;;;;;;;;5071540;28;20442;-50
2023/03/04 07:46:00;;;;;;;7.07;3.80;;;;;;;;;;5071303;28;20231;-50
2023/03/04 07:48:26;;;;;;;11.63;4.97;;;;;;;;;;5071254;28;20559;-50
2023/03/04 07:51:03;;;;;;;7.53;4.60;;;;;;;;;;5071255;28;20433;-51
2023/03/04 07:53:29;;;;;;;9.03;4.23;;;;;;;;;;5071247;28;20204;-50
2023/03/04 07:55:55;;;;;;;9.37;5.10;;;;;;;;;;5071105;28;20434;-49
2023/03/04 07:58:21;;;;;;;7.13;5.30;;;;;;;;;;5071470;28;20870;-50
2023/03/04 08:00:47;;;;;;;10.47;4.77;;;;;;;;;;5071106;28;20202;-51
2023/03/04 08:03:13;;;;;;;8.17;4.87;;;;;;;;;;5071314;28;20204;-50
2023/03/04 08:05:39;;;;;;;6.83;4.40;;;;;;;;;;5071006;28;20348;-50
2023/03/04 08:08:07;;;;;;;5.93;4.10;;;;;;;;;;5071122;28;20200;-50
2023/03/04 08:10:33;;;;;;;10.93;4.43;;;;;;;;;;5071161;28;20613;-48
2023/03/04 08:12:59;;;;;;;6.33;3.43;;;;;;;;;;5071037;28;20463;-49
2023/03/04 08:15:26;;;;;;;7.03;3.80;;;;;;;;;;5071267;28;20776;-48
2023/03/04 08:17:52;;;;;;;5.77;3.03;;;;;;;;;;5071161;28;20232;-49
2023/03/04 08:20:18;;;;;;;6.27;2.97;;;;;;;;;;5071071;28;20203;-49
2023/03/04 08:22:44;;;;;;;9.70;4.63;;;;;;;;;;5070849;28;20450;-50
2023/03/04 08:25:11;;;;;;;7.10;3.00;;;;;;;;;;5070868;28;20724;-50
2023/03/04 08:27:37;;;;;;;10.47;2.80;;;;;;;;;;5071040;28;20274;-50
2023/03/04 08:30:03;;;;;;;7.50;2.70;;;;;;;;;;5070875;28;20462;-50
2023/03/04 08:32:29;;;;;;;7.93;2.93;;;;;;;;;;5070926;28;20196;-50
2023/03/04 08:34:56;;;;;;;4.63;2.80;;;;;;;;;;5070815;28;20269;-49
2023/03/04 08:37:22;;;;;;;7.00;3.03;;;;;;;;;;5070878;28;20426;-50
2023/03/04 08:39:48;;;;;;;6.73;3.13;;;;;;;;;;5070661;28;20235;-48
2023/03/04 08:42:15;;;;;;;6.83;3.13;;;;;;;;;;5071065;28;20760;-49
2023/03/04 08:44:41;;;;;;;7.93;2.93;;;;;;;;;;5070759;28;20310;-49
2023/03/04 08:47:09;;;;;;;5.93;2.90;;;;;;;;;;5070957;28;20620;-49
2023/03/04 08:49:35;;;;;;;4.10;2.43;;;;;;;;;;5070919;28;20195;-48
2023/03/04 08:52:01;;;;;;;7.53;2.60;;;;;;;;;;5070842;28;20654;-49
2023/03/04 08:54:27;;;;;;;4.83;2.80;;;;;;;;;;5070908;28;20204;-49
2023/03/04 08:56:53;;;;;;;5.53;2.13;;;;;;;;;;5072928;28;20199;-49
2023/03/04 08:59:20;;;;;;;5.87;2.97;;;;;;;;;;5072579;28;20205;-48
2023/03/04 09:01:46;;;;;;;3.13;2.03;;;;;;;;;;5073862;28;20211;-48
2023/03/04 09:04:12;;;;;;;6.60;2.67;;;;;;;;;;5074379;28;20274;-48
2023/03/04 09:06:38;;;;;;;7.97;2.73;;;;;;;;;;5073913;28;20573;-49
2023/03/04 09:09:04;;;;;;;5.37;2.40;;;;;;;;;;5074111;28;20302;-48
2023/03/04 09:11:31;;;;;;;9.70;2.53;;;;;;;;;;5073844;28;20441;-49
2023/03/04 09:13:57;;;;;;;7.97;2.57;;;;;;;;;;5073857;28;20301;-48
2023/03/04 09:16:24;;;;;;;7.73;2.60;;;;;;;;;;5073902;28;20226;-48
2023/03/04 09:18:50;;;;;;;15.77;3.00;;;;;;;;;;5073835;28;20215;-49
2023/03/04 09:21:16;;;;;;;9.87;2.87;;;;;;;;;;5073753;28;20686;-49
2023/03/04 09:23:42;;;;;;;7.17;2.40;;;;;;;;;;5073591;28;20216;-49
2023/03/04 09:26:20;;;;;;;11.40;3.17;;;;;;;;;;5073655;28;20598;-49
2023/03/04 09:28:49;;;;;;;11.30;2.77;;;;;;;;;;5073517;28;20199;-49
2023/03/04 09:31:15;;;;;;;13.10;2.93;;;;;;;;;;5073613;28;20457;-50
2023/03/04 09:33:42;;;;;;;8.03;2.80;;;;;;;;;;5073420;28;20196;-49
2023/03/04 09:36:09;;;;;;;14.57;3.00;;;;;;;;;;5073362;28;20659;-48
2023/03/04 09:38:37;;;;;;;7.70;2.63;;;;;;;;;;5073487;28;20434;-49
2023/03/04 09:41:05;;;;;;;16.40;3.43;;;;;;;;;;5073189;28;20236;-49
2023/03/04 09:43:32;;;;;;;14.00;3.53;;;;;;;;;;5073288;28;20221;-48
2023/03/04 09:45:59;;;;;;;11.13;2.63;;;;;;;;;;5072842;28;20223;-48
2023/03/04 09:48:27;;;;;;;9.83;2.83;;;;;;;;;;5072957;28;20739;-49
2023/03/04 09:51:02;;;;;;;8.10;3.03;;;;;;;;;;5072967;28;20201;-49
2023/03/04 09:53:34;;;;;;;7.60;2.70;;;;;;;;;;5073196;28;20239;-49
2023/03/04 09:56:01;;;;;;;9.20;3.33;;;;;;;;;;5073003;28;20192;-49
2023/03/04 09:58:30;;;;;;;6.73;2.20;;;;;;;;;;5073025;28;20649;-48
2023/03/04 10:01:01;;;;;;;10.17;2.50;;;;;;;;;;5072891;28;20231;-49
2023/03/04 10:03:32;;;;;;;8.93;2.63;;;;;;;;;;5072877;28;20657;-48
2023/03/04 10:06:00;;;;;;;4.53;2.30;;;;;;;;;;5072821;28;20673;-48
2023/03/04 10:08:32;;;;;;;7.60;2.20;;;;;;;;;;5071624;28;20203;-49
2023/03/04 10:11:00;;;;;;;5.00;2.47;;;;;;;;;;5072582;28;20713;-48
2023/03/04 10:13:31;;;;;;;9.50;2.40;;;;;;;;;;5072725;28;20231;-49
2023/03/04 10:15:58;;;;;;;8.10;2.60;;;;;;;;;;5072548;28;20249;-49
2023/03/04 10:18:27;;;;;;;5.50;1.90;;;;;;;;;;5072657;28;20191;-48
2023/03/04 10:20:55;;;;;;;5.23;2.07;;;;;;;;;;5072484;28;20204;-48
2023/03/04 10:23:24;;;;;;;6.13;1.97;;;;;;;;;;5072757;28;20199;-49
2023/03/04 10:25:53;;;;;;;6.10;2.20;;;;;;;;;;5072424;28;20227;-49
2023/03/04 10:28:20;;;;;;;8.90;2.73;;;;;;;;;;5072393;28;20654;-51
2023/03/04 10:30:49;;;;;;;6.40;2.50;;;;;;;;;;5072712;28;20269;-50
2023/03/04 10:33:17;;;;;;;7.30;2.40;;;;;;;;;;5072328;28;20192;-49
2023/03/04 10:35:44;;;;;;;6.57;2.27;;;;;;;;;;5072091;28;20283;-49
2023/03/04 10:38:12;;;;;;;6.03;2.43;;;;;;;;;;5072198;28;20199;-47
2023/03/04 10:40:40;;;;;;;6.17;2.43;;;;;;;;;;5072276;28;20311;-49
2023/03/04 10:43:11;;;;;;;7.47;2.20;;;;;;;;;;5072216;28;20298;-48
2023/03/04 10:45:38;;;;;;;5.47;2.40;;;;;;;;;;5072181;28;20227;-48
2023/03/04 10:48:04;;;;;;;9.27;2.73;;;;;;;;;;5071997;28;20195;-48
2023/03/04 10:50:31;;;;;;;9.53;2.80;;;;;;;;;;5071922;28;20347;-48
2023/03/04 10:52:57;;;;;;;8.03;2.67;;;;;;;;;;5072021;28;20257;-48
2023/03/04 10:55:25;;;;;;;7.30;2.50;;;;;;;;;;5071946;28;20217;-49
2023/03/04 10:57:54;;;;;;;7.63;2.57;;;;;;;;;;5071963;28;20200;-49
2023/03/04 11:00:25;;;;;;;7.07;2.30;;;;;;;;;;5071862;28;20704;-49
2023/03/04 11:02:51;;;;;;;9.07;2.73;;;;;;;;;;5071722;28;20256;-49
2023/03/04 11:05:18;;;;;;;9.20;3.30;;;;;;;;;;5071474;28;20231;-49
2023/03/04 11:07:45;;;;;;;5.67;2.20;;;;;;;;;;5071587;28;20548;-49
2023/03/04 11:10:14;;;;;;;9.57;3.23;;;;;;;;;;5071671;28;20199;-50
2023/03/04 11:12:40;;;;;;;7.20;2.67;;;;;;;;;;5071440;28;20250;-49
2023/03/04 11:15:23;;;;;;;9.30;3.00;;;;;;;;;;5071727;28;20196;-49
2023/03/04 11:17:50;;;;;;;9.53;3.00;;;;;;;;;;5071481;28;20200;-49
2023/03/04 11:20:20;;;;;;;12.63;3.40;;;;;;;;;;5070977;28;20719;-49
2023/03/04 11:22:46;;;;;;;9.40;3.00;;;;;;;;;;5071328;28;20298;-50
2023/03/04 11:25:20;;;;;;;6.60;2.73;;;;;;;;;;5071243;28;20689;-49
2023/03/04 11:27:47;;;;;;;10.00;3.47;;;;;;;;;;5071222;28;20226;-50
2023/03/04 11:30:21;;;;;;;12.17;3.40;;;;;;;;;;5071255;28;20235;-50
2023/03/04 11:32:49;;;;;;;6.80;2.67;;;;;;;;;;5071143;28;20234;-51
2023/03/04 11:35:18;;;;;;;11.27;3.03;;;;;;;;;;5071202;28;20187;-49
2023/03/04 11:37:47;;;;;;;11.97;2.87;;;;;;;;;;5071271;28;20583;-49
2023/03/04 11:40:14;;;;;;;7.50;2.83;;;;;;;;;;5070999;28;20235;-49
2023/03/04 11:42:42;;;;;;;8.30;2.77;;;;;;;;;;5071036;28;20199;-49
2023/03/04 11:45:11;;;;;;;8.73;2.90;;;;;;;;;;5071330;28;20224;-51
2023/03/04 11:47:45;;;;;;;9.37;2.87;;;;;;;;;;5071254;28;20618;-48
2023/03/04 11:50:27;;;;;;;8.40;2.80;;;;;;;;;;5071112;28;20203;-53
2023/03/04 11:53:01;;;;;;;6.23;2.30;;;;;;;;;;5071471;28;20203;-51
2023/03/04 11:55:31;;;;;;;7.73;2.73;;;;;;;;;;5071068;28;20687;-51
2023/03/04 11:58:04;;;;;;;5.63;2.67;;;;;;;;;;5070976;28;20654;-50
2023/03/04 12:00:34;;;;;;;11.73;3.07;;;;;;;;;;5071096;28;20391;-50
2023/03/04 12:03:11;;;;;;;6.00;2.53;;;;;;;;;;5070966;28;20203;-50
2023/03/04 12:05:43;;;;;;;7.63;2.47;;;;;;;;;;5071008;28;20219;-50
2023/03/04 12:08:26;;;;;;;9.20;2.80;;;;;;;;;;5071087;28;20200;-51
2023/03/04 12:10:55;;;;;;;9.80;2.70;;;;;;;;;;5070955;28;20650;-50
2023/03/04 12:13:34;;;;;;;9.23;3.03;;;;;;;;;;5070813;28;20588;-50
2023/03/04 12:16:04;;;;;;;6.63;2.47;;;;;;;;;;5070841;28;20294;-51
2023/03/04 12:18:39;;;;;;;7.93;2.50;;;;;;;;;;5070804;28;20290;-51
2023/03/04 12:21:14;;;;;;;7.17;2.03;;;;;;;;;;5070709;28;20707;-51
2023/03/04 12:23:56;;;;;;;7.43;2.70;;;;;;;;;;5070885;28;20657;-52
2023/03/04 12:26:28;;;;;;;12.07;3.00;;;;;;;;;;5071372;28;20227;-50
2023/03/04 12:28:57;;;;;;;7.27;2.80;;;;;;;;;;5071117;28;20199;-49
2023/03/04 12:31:32;;;;;;;8.47;2.57;;;;;;;;;;5072734;28;20222;-49
2023/03/04 12:34:16;;;;;;;7.47;2.87;;;;;;;;;;5074811;28;20198;-50
2023/03/04 12:36:50;;;;;;;7.87;2.70;;;;;;;;;;5074380;28;20249;-49
2023/03/04 12:39:23;;;;;;;5.73;2.23;;;;;;;;;;5074946;28;20207;-50
2023/03/04 12:41:54;;;;;;;9.20;3.17;;;;;;;;;;5073923;28;20257;-50
2023/03/04 12:44:20;;;;;;;9.50;2.80;;;;;;;;;;5073844;28;20279;-50
2023/03/04 12:47:07;;;;;;;8.80;3.10;;;;;;;;;;5073616;28;20249;-50
2023/03/04 12:49:41;;;;;;;9.37;2.93;;;;;;;;;;5073736;28;20200;-52
2023/03/04 12:52:12;;;;;;;8.30;2.83;;;;;;;;;;5071719;28;20562;-51
2023/03/04 12:54:39;;;;;;;9.67;2.43;;;;;;;;;;5072985;28;20702;-51
2023/03/04 12:57:09;;;;;;;9.13;2.40;;;;;;;;;;5072475;28;20191;-50
2023/03/04 12:59:37;;;;;;;7.80;3.57;;;;;;;;;;5072973;28;20261;-49
2023/03/04 13:02:14;;;;;;;7.10;2.60;;;;;;;;;;5071332;28;20199;-50
2023/03/04 13:04:46;;;;;;;7.40;2.80;;;;;;;;;;5072989;28;20199;-50
2023/03/04 13:07:16;;;;;;;10.10;2.70;;;;;;;;;;5073122;28;20216;-50
2023/03/04 13:09:47;;;;;;;10.77;3.10;;;;;;;;;;5072878;28;20242;-50
2023/03/04 13:12:15;;;;;;;7.63;2.60;;;;;;;;;;5072864;28;20585;-52
2023/03/04 13:15:01;;;;;;;7.93;2.87;;;;;;;;;;5072887;28;20630;-50
2023/03/04 13:17:40;;;;;;;8.20;2.67;;;;;;;;;;5072610;28;20655;-52
2023/03/04 13:20:21;;;;;;;5.87;2.40;;;;;;;;;;5072852;28;20203;-50
2023/03/04 13:22:52;;;;;;;6.90;2.40;;;;;;;;;;5069686;28;20204;-51
2023/03/04 13:25:35;;;;;;;15.43;4.17;;;;;;;;;;5072799;28;20235;-50
2023/03/04 13:28:25;;;;;;;11.40;3.33;;;;;;;;;;5072663;28;20294;-51
2023/03/04 13:31:12;;;;;;;5.87;2.60;;;;;;;;;;5072801;28;20199;-51
2023/03/04 13:33:52;;;;;;;11.50;3.20;;;;;;;;;;5072856;28;20203;-50
2023/03/04 13:36:28;;;;;;;7.53;3.10;;;;;;;;;;5072562;28;20657;-51
2023/03/04 13:38:59;;;;;;;10.53;2.77;;;;;;;;;;5072586;28;20206;-51
2023/03/04 13:41:32;;;;;;;7.93;3.25;;;;;;;;;;5037672;28;1018462;-52
2023/03/04 13:43:59;;;;;;;13.37;4.07;;;;;;;;;;5073444;28;20200;-50
2023/03/04 13:46:29;;;;;;;14.47;3.53;;;;;;;;;;5073506;28;20254;-50
2023/03/04 13:49:01;;;;;;;8.97;3.40;;;;;;;;;;5073437;28;20222;-49
2023/03/04 13:51:30;;;;;;;9.80;3.67;;;;;;;;;;5073493;28;20211;-49
2023/03/04 13:54:06;;;;;;;12.10;3.77;;;;;;;;;;5073314;28;20283;-50
2023/03/04 13:56:35;;;;;;;12.50;3.17;;;;;;;;;;5073466;28;20358;-50
2023/03/04 13:59:03;;;;;;;10.17;3.07;;;;;;;;;;5073193;28;20204;-49
2023/03/04 14:01:31;;;;;;;12.60;3.23;;;;;;;;;;5073212;28;20639;-51
2023/03/04 14:03:58;;;;;;;10.40;3.40;;;;;;;;;;5073119;28;20641;-50
2023/03/04 14:06:24;;;;;;;8.47;2.90;;;;;;;;;;5073281;28;20231;-50
2023/03/04 14:08:51;;;;;;;11.20;3.40;;;;;;;;;;5073167;28;20232;-50
2023/03/04 14:11:22;;;;;;;14.17;3.77;;;;;;;;;;5073072;28;20194;-51
2023/03/04 14:13:50;;;;;;;12.40;2.97;;;;;;;;;;5072881;28;20701;-51
2023/03/04 14:16:19;;;;;;;9.80;3.17;;;;;;;;;;5073066;28;20199;-50
2023/03/04 14:18:45;;;;;;;10.80;3.13;;;;;;;;;;5072927;28;20202;-53
2023/03/04 14:21:13;;;;;;;8.90;2.80;;;;;;;;;;5072899;28;20192;-51
2023/03/04 14:23:39;;;;;;;9.07;3.00;;;;;;;;;;5072877;28;20650;-51
2023/03/04 14:26:06;;;;;;;11.57;3.23;;;;;;;;;;5072776;28;20248;-52
2023/03/04 14:28:32;;;;;;;8.37;3.47;;;;;;;;;;5072740;28;20195;-51
2023/03/04 14:31:00;;;;;;;11.73;2.80;;;;;;;;;;5072611;28;20196;-52
2023/03/04 14:33:27;;;;;;;11.77;2.97;;;;;;;;;;5072615;28;20211;-51
2023/03/04 14:35:54;;;;;;;9.00;3.03;;;;;;;;;;5072477;28;20238;-51
2023/03/04 14:38:23;;;;;;;10.80;2.73;;;;;;;;;;5072653;28;20297;-51
2023/03/04 14:40:51;;;;;;;10.13;3.33;;;;;;;;;;5072225;28;20679;-48
2023/03/04 14:43:18;;;;;;;11.90;3.23;;;;;;;;;;5072496;28;20283;-50